sensor_id;sensor_type;location;lat;lon;timestamp;temperature;humidity
3564;DHT22;1796;52.388;13.096;2024-02-15T00:00:20;9.00;99.90
3564;DHT22;1796;52.388;13.096;2024-02-15T00:02:48;9.00;99.90
3564;DHT22;1796;52.388;13.096;2024-02-15T00:05:15;9.10;99.90
3564;DHT22;1796;52.388;13.096;2024-02-15T00:07:43;9.10;99.90
3564;DHT22;1796;52.388;13.096;2024-02-15T00:10:12;9.10;99.90
3564;DHT22;1796;52.388;13.096;2024-02-15T00:12:40;9.10;99.90
3564;DHT22;1796;52.388;13.096;2024-02-15T00:15:07;9.10;99.90
3564;DHT22;1796;52.388;13.096;2024-02-15T00:17:34;9.10;99.90
3564;DHT22;1796;52.388;13.096;2024-02-15T00:20:01;9.10;99.90
3564;DHT22;1796;52.388;13.096;2024-02-15T00:22:30;9.10;99.90
3564;DHT22;1796;52.388;13.096;2024-02-15T00:25:00;9.10;99.90
3564;DHT22;1796;52.388;13.096;2024-02-15T00:27:27;9.20;99.90
3564;DHT22;1796;52.388;13.096;2024-02-15T00:29:54;9.20;99.90
3564;DHT22;1796;52.388;13.096;2024-02-15T00:32:20;9.10;99.90
3564;DHT22;1796;52.388;13.096;2024-02-15T00:34:47;9.10;99.90
3564;DHT22;1796;52.388;13.096;2024-02-15T00:37:16;9.10;99.90
3564;DHT22;1796;52.388;13.096;2024-02-15T00:39:43;9.10;99.90
3564;DHT22;1796;52.388;13.096;2024-02-15T00:42:11;9.20;99.90
3564;DHT22;1796;52.388;13.096;2024-02-15T00:44:39;9.20;99.90
3564;DHT22;1796;52.388;13.096;2024-02-15T00:47:06;9.10;99.90
3564;DHT22;1796;52.388;13.096;2024-02-15T00:49:33;9.10;99.90
3564;DHT22;1796;52.388;13.096;2024-02-15T00:52:01;9.10;99.90
3564;DHT22;1796;52.388;13.096;2024-02-15T00:54:28;9.10;99.90
3564;DHT22;1796;52.388;13.096;2024-02-15T00:56:55;9.10;99.90
3564;DHT22;1796;52.388;13.096;2024-02-15T00:59:23;9.10;99.90
3564;DHT22;1796;52.388;13.096;2024-02-15T01:01:50;9.20;99.90
3564;DHT22;1796;52.388;13.096;2024-02-15T01:04:19;9.10;99.90
3564;DHT22;1796;52.388;13.096;2024-02-15T01:06:46;9.10;99.90
3564;DHT22;1796;52.388;13.096;2024-02-15T01:09:14;9.10;99.90
3564;DHT22;1796;52.388;13.096;2024-02-15T01:11:41;9.20;99.90
3564;DHT22;1796;52.388;13.096;2024-02-15T01:14:08;9.10;99.90
3564;DHT22;1796;52.388;13.096;2024-02-15T01:16:37;9.20;99.90
3564;DHT22;1796;52.388;13.096;2024-02-15T01:19:04;9.20;99.90
3564;DHT22;1796;52.388;13.096;2024-02-15T01:21:32;9.10;99.90
3564;DHT22;1796;52.388;13.096;2024-02-15T01:23:59;9.10;99.90
3564;DHT22;1796;52.388;13.096;2024-02-15T01:26:27;9.20;99.90
3564;DHT22;1796;52.388;13.096;2024-02-15T01:28:55;9.10;99.90
3564;DHT22;1796;52.388;13.096;2024-02-15T01:31:22;9.20;99.90
3564;DHT22;1796;52.388;13.096;2024-02-15T01:33:50;9.20;99.90
3564;DHT22;1796;52.388;13.096;2024-02-15T01:36:18;9.20;99.90
3564;DHT22;1796;52.388;13.096;2024-02-15T01:38:45;9.20;99.90
3564;DHT22;1796;52.388;13.096;2024-02-15T01:41:12;9.20;99.90
3564;DHT22;1796;52.388;13.096;2024-02-15T01:43:43;9.10;99.90
3564;DHT22;1796;52.388;13.096;2024-02-15T01:46:11;9.20;99.90
3564;DHT22;1796;52.388;13.096;2024-02-15T01:48:39;9.20;99.90
3564;DHT22;1796;52.388;13.096;2024-02-15T01:51:10;9.20;99.90
3564;DHT22;1796;52.388;13.096;2024-02-15T01:53:38;9.20;99.90
3564;DHT22;1796;52.388;13.096;2024-02-15T01:56:06;9.20;99.90
3564;DHT22;1796;52.388;13.096;2024-02-15T01:58:33;9.20;99.90
3564;DHT22;1796;52.388;13.096;2024-02-15T02:01:02;9.20;99.90
3564;DHT22;1796;52.388;13.096;2024-02-15T02:03:29;9.20;99.90
3564;DHT22;1796;52.388;13.096;2024-02-15T02:05:56;9.20;99.90
3564;DHT22;1796;52.388;13.096;2024-02-15T02:08:25;9.20;99.90
3564;DHT22;1796;52.388;13.096;2024-02-15T02:10:52;9.20;99.90
3564;DHT22;1796;52.388;13.096;2024-02-15T02:13:19;9.20;99.90
3564;DHT22;1796;52.388;13.096;2024-02-15T02:15:46;9.20;99.90
3564;DHT22;1796;52.388;13.096;2024-02-15T02:18:13;9.20;99.90
3564;DHT22;1796;52.388;13.096;2024-02-15T02:20:40;9.20;99.90
3564;DHT22;1796;52.388;13.096;2024-02-15T02:23:09;9.20;99.90
3564;DHT22;1796;52.388;13.096;2024-02-15T02:25:41;9.20;99.90
3564;DHT22;1796;52.388;13.096;2024-02-15T02:28:09;9.20;99.90
3564;DHT22;1796;52.388;13.096;2024-02-15T02:30:36;9.30;99.90
3564;DHT22;1796;52.388;13.096;2024-02-15T02:33:11;9.20;99.90
3564;DHT22;1796;52.388;13.096;2024-02-15T02:35:43;9.30;99.90
3564;DHT22;1796;52.388;13.096;2024-02-15T02:38:10;9.30;99.90
3564;DHT22;1796;52.388;13.096;2024-02-15T02:40:37;9.30;99.90
3564;DHT22;1796;52.388;13.096;2024-02-15T02:43:05;9.30;99.90
3564;DHT22;1796;52.388;13.096;2024-02-15T02:45:32;9.30;99.90
3564;DHT22;1796;52.388;13.096;2024-02-15T02:47:59;9.20;99.90
3564;DHT22;1796;52.388;13.096;2024-02-15T02:50:26;9.20;99.90
3564;DHT22;1796;52.388;13.096;2024-02-15T02:52:56;9.30;99.90
3564;DHT22;1796;52.388;13.096;2024-02-15T02:55:23;9.30;99.90
3564;DHT22;1796;52.388;13.096;2024-02-15T02:57:52;9.30;99.90
3564;DHT22;1796;52.388;13.096;2024-02-15T03:00:22;9.30;99.90
3564;DHT22;1796;52.388;13.096;2024-02-15T03:02:48;9.30;99.90
3564;DHT22;1796;52.388;13.096;2024-02-15T03:05:15;9.30;99.90
3564;DHT22;1796;52.388;13.096;2024-02-15T03:07:42;9.30;99.90
3564;DHT22;1796;52.388;13.096;2024-02-15T03:10:10;9.30;99.90
3564;DHT22;1796;52.388;13.096;2024-02-15T03:12:39;9.30;99.90
3564;DHT22;1796;52.388;13.096;2024-02-15T03:15:11;9.30;99.90
3564;DHT22;1796;52.388;13.096;2024-02-15T03:17:40;9.30;99.90
3564;DHT22;1796;52.388;13.096;2024-02-15T03:20:08;9.30;99.90
3564;DHT22;1796;52.388;13.096;2024-02-15T03:22:37;9.30;99.90
3564;DHT22;1796;52.388;13.096;2024-02-15T03:25:04;9.30;99.90
3564;DHT22;1796;52.388;13.096;2024-02-15T03:27:33;9.30;99.90
3564;DHT22;1796;52.388;13.096;2024-02-15T03:30:01;9.30;99.90
3564;DHT22;1796;52.388;13.096;2024-02-15T03:32:29;9.40;99.90
3564;DHT22;1796;52.388;13.096;2024-02-15T03:34:58;9.40;99.90
3564;DHT22;1796;52.388;13.096;2024-02-15T03:37:26;9.40;99.90
3564;DHT22;1796;52.388;13.096;2024-02-15T03:39:53;9.40;99.90
3564;DHT22;1796;52.388;13.096;2024-02-15T03:42:20;9.30;99.90
3564;DHT22;1796;52.388;13.096;2024-02-15T03:44:47;9.40;99.90
3564;DHT22;1796;52.388;13.096;2024-02-15T03:47:14;9.40;99.90
3564;DHT22;1796;52.388;13.096;2024-02-15T03:49:41;9.30;99.90
3564;DHT22;1796;52.388;13.096;2024-02-15T03:52:09;9.40;99.90
3564;DHT22;1796;52.388;13.096;2024-02-15T03:54:37;9.40;99.90
3564;DHT22;1796;52.388;13.096;2024-02-15T03:57:04;9.40;99.90
3564;DHT22;1796;52.388;13.096;2024-02-15T03:59:32;9.50;99.90
3564;DHT22;1796;52.388;13.096;2024-02-15T04:02:00;9.40;99.90
3564;DHT22;1796;52.388;13.096;2024-02-15T04:04:28;9.40;99.90
3564;DHT22;1796;52.388;13.096;2024-02-15T04:06:56;9.40;99.90
3564;DHT22;1796;52.388;13.096;2024-02-15T04:09:25;9.40;99.90
3564;DHT22;1796;52.388;13.096;2024-02-15T04:11:52;9.40;99.90
3564;DHT22;1796;52.388;13.096;2024-02-15T04:14:19;9.40;99.90
3564;DHT22;1796;52.388;13.096;2024-02-15T04:16:46;9.40;99.90
3564;DHT22;1796;52.388;13.096;2024-02-15T04:19:13;9.40;99.90
3564;DHT22;1796;52.388;13.096;2024-02-15T04:21:40;9.40;99.90
3564;DHT22;1796;52.388;13.096;2024-02-15T04:24:09;9.40;99.90
3564;DHT22;1796;52.388;13.096;2024-02-15T04:26:38;9.50;99.90
3564;DHT22;1796;52.388;13.096;2024-02-15T04:29:05;9.50;99.90
3564;DHT22;1796;52.388;13.096;2024-02-15T04:31:34;9.40;99.90
3564;DHT22;1796;52.388;13.096;2024-02-15T04:34:04;9.50;99.90
3564;DHT22;1796;52.388;13.096;2024-02-15T04:36:31;9.50;99.90
3564;DHT22;1796;52.388;13.096;2024-02-15T04:39:00;9.50;99.90
3564;DHT22;1796;52.388;13.096;2024-02-15T04:41:28;9.50;99.90
3564;DHT22;1796;52.388;13.096;2024-02-15T04:43:56;9.50;99.90
3564;DHT22;1796;52.388;13.096;2024-02-15T04:46:23;9.50;99.90
3564;DHT22;1796;52.388;13.096;2024-02-15T04:48:51;9.50;99.90
3564;DHT22;1796;52.388;13.096;2024-02-15T04:51:18;9.60;99.90
3564;DHT22;1796;52.388;13.096;2024-02-15T04:53:45;9.50;99.90
3564;DHT22;1796;52.388;13.096;2024-02-15T04:56:13;9.60;99.90
3564;DHT22;1796;52.388;13.096;2024-02-15T04:58:42;9.60;99.90
3564;DHT22;1796;52.388;13.096;2024-02-15T05:01:14;9.50;99.90
3564;DHT22;1796;52.388;13.096;2024-02-15T05:03:41;9.50;99.90
3564;DHT22;1796;52.388;13.096;2024-02-15T05:06:08;9.50;99.90
3564;DHT22;1796;52.388;13.096;2024-02-15T05:08:36;9.50;99.90
3564;DHT22;1796;52.388;13.096;2024-02-15T05:11:04;9.50;99.90
3564;DHT22;1796;52.388;13.096;2024-02-15T05:13:32;9.50;99.90
3564;DHT22;1796;52.388;13.096;2024-02-15T05:15:59;9.50;99.90
3564;DHT22;1796;52.388;13.096;2024-02-15T05:18:27;9.50;99.90
3564;DHT22;1796;52.388;13.096;2024-02-15T05:20:56;9.50;99.90
3564;DHT22;1796;52.388;13.096;2024-02-15T05:23:23;9.60;99.90
3564;DHT22;1796;52.388;13.096;2024-02-15T05:25:49;9.60;99.90
3564;DHT22;1796;52.388;13.096;2024-02-15T05:28:16;9.50;99.90
3564;DHT22;1796;52.388;13.096;2024-02-15T05:30:44;9.60;99.90
3564;DHT22;1796;52.388;13.096;2024-02-15T05:33:11;9.60;99.90
3564;DHT22;1796;52.388;13.096;2024-02-15T05:35:39;9.60;99.90
3564;DHT22;1796;52.388;13.096;2024-02-15T05:38:07;9.60;99.90
3564;DHT22;1796;52.388;13.096;2024-02-15T05:40:37;9.60;99.90
3564;DHT22;1796;52.388;13.096;2024-02-15T05:43:03;9.60;99.90
3564;DHT22;1796;52.388;13.096;2024-02-15T05:45:31;9.70;99.90
3564;DHT22;1796;52.388;13.096;2024-02-15T05:48:04;9.60;99.90
3564;DHT22;1796;52.388;13.096;2024-02-15T05:50:34;9.70;99.90
3564;DHT22;1796;52.388;13.096;2024-02-15T05:53:03;9.60;99.90
3564;DHT22;1796;52.388;13.096;2024-02-15T05:55:30;9.70;99.90
3564;DHT22;1796;52.388;13.096;2024-02-15T05:57:59;9.60;99.90
3564;DHT22;1796;52.388;13.096;2024-02-15T06:00:27;9.60;99.90
3564;DHT22;1796;52.388;13.096;2024-02-15T06:02:55;9.70;99.90
3564;DHT22;1796;52.388;13.096;2024-02-15T06:05:22;9.70;99.90
3564;DHT22;1796;52.388;13.096;2024-02-15T06:07:49;9.60;99.90
3564;DHT22;1796;52.388;13.096;2024-02-15T06:10:17;9.70;99.90
3564;DHT22;1796;52.388;13.096;2024-02-15T06:12:44;9.70;99.90
3564;DHT22;1796;52.388;13.096;2024-02-15T06:15:11;9.70;99.90
3564;DHT22;1796;52.388;13.096;2024-02-15T06:17:41;9.70;99.90
3564;DHT22;1796;52.388;13.096;2024-02-15T06:20:12;9.70;99.90
3564;DHT22;1796;52.388;13.096;2024-02-15T06:22:40;9.80;99.90
3564;DHT22;1796;52.388;13.096;2024-02-15T06:25:08;9.70;99.90
3564;DHT22;1796;52.388;13.096;2024-02-15T06:27:37;9.70;99.90
3564;DHT22;1796;52.388;13.096;2024-02-15T06:30:07;9.70;99.90
3564;DHT22;1796;52.388;13.096;2024-02-15T06:32:52;9.70;99.90
3564;DHT22;1796;52.388;13.096;2024-02-15T06:35:36;9.70;99.90
3564;DHT22;1796;52.388;13.096;2024-02-15T06:38:23;9.80;99.90
3564;DHT22;1796;52.388;13.096;2024-02-15T06:41:08;9.80;99.90
3564;DHT22;1796;52.388;13.096;2024-02-15T06:43:36;9.70;99.90
3564;DHT22;1796;52.388;13.096;2024-02-15T06:46:06;9.80;99.90
3564;DHT22;1796;52.388;13.096;2024-02-15T06:48:33;9.80;99.90
3564;DHT22;1796;52.388;13.096;2024-02-15T06:51:00;9.80;99.90
3564;DHT22;1796;52.388;13.096;2024-02-15T06:53:29;9.90;99.90
3564;DHT22;1796;52.388;13.096;2024-02-15T06:55:56;9.90;99.90
3564;DHT22;1796;52.388;13.096;2024-02-15T06:58:22;9.90;99.90
3564;DHT22;1796;52.388;13.096;2024-02-15T07:00:51;9.90;99.90
3564;DHT22;1796;52.388;13.096;2024-02-15T07:03:18;10.00;99.90
3564;DHT22;1796;52.388;13.096;2024-02-15T07:05:48;10.10;99.90
3564;DHT22;1796;52.388;13.096;2024-02-15T07:08:15;10.10;99.90
3564;DHT22;1796;52.388;13.096;2024-02-15T07:10:42;10.10;99.90
3564;DHT22;1796;52.388;13.096;2024-02-15T07:13:09;10.10;99.90
3564;DHT22;1796;52.388;13.096;2024-02-15T07:15:36;10.10;99.90
3564;DHT22;1796;52.388;13.096;2024-02-15T07:18:05;10.10;99.90
3564;DHT22;1796;52.388;13.096;2024-02-15T07:20:33;10.10;99.90
3564;DHT22;1796;52.388;13.096;2024-02-15T07:23:00;10.10;99.90
3564;DHT22;1796;52.388;13.096;2024-02-15T07:25:26;10.20;99.90
3564;DHT22;1796;52.388;13.096;2024-02-15T07:27:53;10.20;99.90
3564;DHT22;1796;52.388;13.096;2024-02-15T07:30:22;10.30;99.90
3564;DHT22;1796;52.388;13.096;2024-02-15T07:32:49;10.30;99.90
3564;DHT22;1796;52.388;13.096;2024-02-15T07:35:18;10.40;99.90
3564;DHT22;1796;52.388;13.096;2024-02-15T07:37:52;10.40;99.90
3564;DHT22;1796;52.388;13.096;2024-02-15T07:40:21;10.40;99.90
3564;DHT22;1796;52.388;13.096;2024-02-15T07:42:48;10.40;99.90
3564;DHT22;1796;52.388;13.096;2024-02-15T07:45:15;10.40;99.90
3564;DHT22;1796;52.388;13.096;2024-02-15T07:47:46;10.40;99.90
3564;DHT22;1796;52.388;13.096;2024-02-15T07:50:15;10.40;99.90
3564;DHT22;1796;52.388;13.096;2024-02-15T07:52:47;10.40;99.90
3564;DHT22;1796;52.388;13.096;2024-02-15T07:55:14;10.50;99.90
3564;DHT22;1796;52.388;13.096;2024-02-15T07:57:41;10.40;99.90
3564;DHT22;1796;52.388;13.096;2024-02-15T08:00:09;10.50;99.90
3564;DHT22;1796;52.388;13.096;2024-02-15T08:02:38;10.50;99.90
3564;DHT22;1796;52.388;13.096;2024-02-15T08:05:07;10.50;99.90
3564;DHT22;1796;52.388;13.096;2024-02-15T08:07:37;10.60;99.90
3564;DHT22;1796;52.388;13.096;2024-02-15T08:10:07;10.70;99.90
3564;DHT22;1796;52.388;13.096;2024-02-15T08:12:39;10.70;99.90
3564;DHT22;1796;52.388;13.096;2024-02-15T08:15:06;10.80;99.90
3564;DHT22;1796;52.388;13.096;2024-02-15T08:17:38;10.80;99.90
3564;DHT22;1796;52.388;13.096;2024-02-15T08:20:07;10.80;99.90
3564;DHT22;1796;52.388;13.096;2024-02-15T08:22:34;10.80;99.90
3564;DHT22;1796;52.388;13.096;2024-02-15T08:25:03;10.80;99.90
3564;DHT22;1796;52.388;13.096;2024-02-15T08:27:31;10.80;99.90
3564;DHT22;1796;52.388;13.096;2024-02-15T08:29:59;10.90;99.90
3564;DHT22;1796;52.388;13.096;2024-02-15T08:32:29;10.80;99.90
3564;DHT22;1796;52.388;13.096;2024-02-15T08:34:56;10.80;99.90
3564;DHT22;1796;52.388;13.096;2024-02-15T08:37:23;10.90;99.90
3564;DHT22;1796;52.388;13.096;2024-02-15T08:39:50;11.00;99.90
3564;DHT22;1796;52.388;13.096;2024-02-15T08:42:18;11.00;99.90
3564;DHT22;1796;52.388;13.096;2024-02-15T08:44:49;11.20;99.90
3564;DHT22;1796;52.388;13.096;2024-02-15T08:47:17;11.30;99.90
3564;DHT22;1796;52.388;13.096;2024-02-15T08:49:44;11.40;99.90
3564;DHT22;1796;52.388;13.096;2024-02-15T08:52:12;11.50;99.90
3564;DHT22;1796;52.388;13.096;2024-02-15T08:54:39;11.70;99.90
3564;DHT22;1796;52.388;13.096;2024-02-15T08:57:07;11.90;99.90
3564;DHT22;1796;52.388;13.096;2024-02-15T08:59:34;12.10;99.90
3564;DHT22;1796;52.388;13.096;2024-02-15T09:02:03;12.10;99.90
3564;DHT22;1796;52.388;13.096;2024-02-15T09:04:31;12.10;99.90
3564;DHT22;1796;52.388;13.096;2024-02-15T09:06:58;12.00;99.90
3564;DHT22;1796;52.388;13.096;2024-02-15T09:09:30;12.00;99.90
3564;DHT22;1796;52.388;13.096;2024-02-15T09:12:01;11.90;99.90
3564;DHT22;1796;52.388;13.096;2024-02-15T09:14:32;11.90;99.90
3564;DHT22;1796;52.388;13.096;2024-02-15T09:16:59;12.00;99.90
3564;DHT22;1796;52.388;13.096;2024-02-15T09:19:28;11.90;99.90
3564;DHT22;1796;52.388;13.096;2024-02-15T09:21:56;12.00;99.90
3564;DHT22;1796;52.388;13.096;2024-02-15T09:24:23;12.10;99.90
3564;DHT22;1796;52.388;13.096;2024-02-15T09:26:50;12.20;99.90
3564;DHT22;1796;52.388;13.096;2024-02-15T09:29:18;12.30;99.90
3564;DHT22;1796;52.388;13.096;2024-02-15T09:31:47;12.40;99.90
3564;DHT22;1796;52.388;13.096;2024-02-15T09:34:14;12.50;99.90
3564;DHT22;1796;52.388;13.096;2024-02-15T09:36:42;12.50;99.90
3564;DHT22;1796;52.388;13.096;2024-02-15T09:39:09;12.50;99.90
3564;DHT22;1796;52.388;13.096;2024-02-15T09:41:39;12.50;99.90
3564;DHT22;1796;52.388;13.096;2024-02-15T09:44:08;12.60;99.90
3564;DHT22;1796;52.388;13.096;2024-02-15T09:46:36;12.70;99.90
3564;DHT22;1796;52.388;13.096;2024-02-15T09:49:03;12.80;99.90
3564;DHT22;1796;52.388;13.096;2024-02-15T09:51:33;12.90;99.90
3564;DHT22;1796;52.388;13.096;2024-02-15T09:54:03;13.00;99.90
3564;DHT22;1796;52.388;13.096;2024-02-15T09:56:31;12.90;99.90
3564;DHT22;1796;52.388;13.096;2024-02-15T09:59:00;13.10;99.90
3564;DHT22;1796;52.388;13.096;2024-02-15T10:01:31;13.00;99.90
3564;DHT22;1796;52.388;13.096;2024-02-15T10:03:58;13.20;99.90
3564;DHT22;1796;52.388;13.096;2024-02-15T10:06:26;13.30;99.90
3564;DHT22;1796;52.388;13.096;2024-02-15T10:08:54;13.30;99.90
3564;DHT22;1796;52.388;13.096;2024-02-15T10:11:53;13.40;99.90
3564;DHT22;1796;52.388;13.096;2024-02-15T10:14:22;13.30;99.90
3564;DHT22;1796;52.388;13.096;2024-02-15T10:16:49;13.20;99.90
3564;DHT22;1796;52.388;13.096;2024-02-15T10:19:16;13.30;99.90
3564;DHT22;1796;52.388;13.096;2024-02-15T10:21:44;13.30;99.90
3564;DHT22;1796;52.388;13.096;2024-02-15T10:24:11;13.30;99.90
3564;DHT22;1796;52.388;13.096;2024-02-15T10:26:38;13.40;99.90
3564;DHT22;1796;52.388;13.096;2024-02-15T10:29:08;13.30;99.90
3564;DHT22;1796;52.388;13.096;2024-02-15T10:31:36;13.40;99.90
3564;DHT22;1796;52.388;13.096;2024-02-15T10:34:05;13.30;99.90
3564;DHT22;1796;52.388;13.096;2024-02-15T10:36:33;13.30;99.90
3564;DHT22;1796;52.388;13.096;2024-02-15T10:39:13;13.30;99.90
3564;DHT22;1796;52.388;13.096;2024-02-15T10:41:47;13.30;99.90
3564;DHT22;1796;52.388;13.096;2024-02-15T10:44:17;13.30;99.90
3564;DHT22;1796;52.388;13.096;2024-02-15T10:46:45;13.50;99.90
3564;DHT22;1796;52.388;13.096;2024-02-15T10:49:13;13.40;99.90
3564;DHT22;1796;52.388;13.096;2024-02-15T10:51:43;13.50;99.90
3564;DHT22;1796;52.388;13.096;2024-02-15T10:54:12;13.50;99.90
3564;DHT22;1796;52.388;13.096;2024-02-15T10:56:43;13.40;99.90
3564;DHT22;1796;52.388;13.096;2024-02-15T10:59:18;13.30;99.90
3564;DHT22;1796;52.388;13.096;2024-02-15T11:01:46;13.40;99.90
3564;DHT22;1796;52.388;13.096;2024-02-15T11:04:15;13.50;99.90
3564;DHT22;1796;52.388;13.096;2024-02-15T11:06:43;13.60;99.90
3564;DHT22;1796;52.388;13.096;2024-02-15T11:09:11;13.40;99.90
3564;DHT22;1796;52.388;13.096;2024-02-15T11:11:39;13.40;99.90
3564;DHT22;1796;52.388;13.096;2024-02-15T11:14:27;13.40;99.90
3564;DHT22;1796;52.388;13.096;2024-02-15T11:16:55;13.50;99.90
3564;DHT22;1796;52.388;13.096;2024-02-15T11:19:43;13.60;99.90
3564;DHT22;1796;52.388;13.096;2024-02-15T11:22:13;13.70;99.90
3564;DHT22;1796;52.388;13.096;2024-02-15T11:24:51;13.80;99.90
3564;DHT22;1796;52.388;13.096;2024-02-15T11:27:25;13.70;99.90
3564;DHT22;1796;52.388;13.096;2024-02-15T11:29:55;13.60;99.90
3564;DHT22;1796;52.388;13.096;2024-02-15T11:32:40;13.40;99.90
3564;DHT22;1796;52.388;13.096;2024-02-15T11:35:10;13.40;99.90
3564;DHT22;1796;52.388;13.096;2024-02-15T11:37:57;13.50;99.90
3564;DHT22;1796;52.388;13.096;2024-02-15T11:41:02;13.40;99.90
3564;DHT22;1796;52.388;13.096;2024-02-15T11:43:48;13.30;99.90
3564;DHT22;1796;52.388;13.096;2024-02-15T11:46:24;13.40;99.90
3564;DHT22;1796;52.388;13.096;2024-02-15T11:48:53;13.40;99.90
3564;DHT22;1796;52.388;13.096;2024-02-15T11:51:29;13.40;99.90
3564;DHT22;1796;52.388;13.096;2024-02-15T11:54:03;13.40;99.90
3564;DHT22;1796;52.388;13.096;2024-02-15T11:56:53;13.40;99.90
3564;DHT22;1796;52.388;13.096;2024-02-15T11:59:30;13.30;99.90
3564;DHT22;1796;52.388;13.096;2024-02-15T12:02:09;13.40;99.90
3564;DHT22;1796;52.388;13.096;2024-02-15T12:04:54;13.50;99.90
3564;DHT22;1796;52.388;13.096;2024-02-15T12:07:40;13.60;99.90
3564;DHT22;1796;52.388;13.096;2024-02-15T12:10:25;13.70;99.90
3564;DHT22;1796;52.388;13.096;2024-02-15T12:13:09;13.90;99.90
3564;DHT22;1796;52.388;13.096;2024-02-15T12:15:57;14.10;99.90
3564;DHT22;1796;52.388;13.096;2024-02-15T12:18:43;14.10;99.90
3564;DHT22;1796;52.388;13.096;2024-02-15T12:21:16;14.30;99.90
3564;DHT22;1796;52.388;13.096;2024-02-15T12:23:44;14.40;99.90
3564;DHT22;1796;52.388;13.096;2024-02-15T12:26:11;14.40;99.90
3564;DHT22;1796;52.388;13.096;2024-02-15T12:28:40;14.50;99.90
3564;DHT22;1796;52.388;13.096;2024-02-15T12:31:09;14.70;99.90
3564;DHT22;1796;52.388;13.096;2024-02-15T12:33:39;14.70;99.90
3564;DHT22;1796;52.388;13.096;2024-02-15T12:36:08;14.80;99.90
3564;DHT22;1796;52.388;13.096;2024-02-15T12:38:35;14.50;99.90
3564;DHT22;1796;52.388;13.096;2024-02-15T12:41:04;14.50;99.90
3564;DHT22;1796;52.388;13.096;2024-02-15T12:43:31;14.60;99.90
3564;DHT22;1796;52.388;13.096;2024-02-15T12:45:58;14.60;99.90
3564;DHT22;1796;52.388;13.096;2024-02-15T12:48:25;14.60;99.90
3564;DHT22;1796;52.388;13.096;2024-02-15T12:50:52;14.70;99.90
3564;DHT22;1796;52.388;13.096;2024-02-15T12:53:24;14.70;99.90
3564;DHT22;1796;52.388;13.096;2024-02-15T12:55:55;14.60;99.90
3564;DHT22;1796;52.388;13.096;2024-02-15T12:58:22;14.50;99.90
3564;DHT22;1796;52.388;13.096;2024-02-15T13:00:54;14.50;99.90
3564;DHT22;1796;52.388;13.096;2024-02-15T13:03:24;14.40;99.90
3564;DHT22;1796;52.388;13.096;2024-02-15T13:05:51;14.40;99.90
3564;DHT22;1796;52.388;13.096;2024-02-15T13:08:18;14.40;99.90
3564;DHT22;1796;52.388;13.096;2024-02-15T13:10:46;14.30;99.90
3564;DHT22;1796;52.388;13.096;2024-02-15T13:13:14;14.40;99.90
3564;DHT22;1796;52.388;13.096;2024-02-15T13:15:42;14.50;99.90
3564;DHT22;1796;52.388;13.096;2024-02-15T13:18:09;14.50;99.90
3564;DHT22;1796;52.388;13.096;2024-02-15T13:20:38;14.50;99.90
3564;DHT22;1796;52.388;13.096;2024-02-15T13:23:06;14.60;99.90
3564;DHT22;1796;52.388;13.096;2024-02-15T13:25:41;14.70;99.90
3564;DHT22;1796;52.388;13.096;2024-02-15T13:28:11;14.80;99.90
3564;DHT22;1796;52.388;13.096;2024-02-15T13:30:38;14.80;99.90
3564;DHT22;1796;52.388;13.096;2024-02-15T13:33:06;14.70;99.90
3564;DHT22;1796;52.388;13.096;2024-02-15T13:35:33;14.70;99.90
3564;DHT22;1796;52.388;13.096;2024-02-15T13:38:01;14.60;99.90
3564;DHT22;1796;52.388;13.096;2024-02-15T13:40:29;14.60;99.90
3564;DHT22;1796;52.388;13.096;2024-02-15T13:42:58;14.50;99.90
3564;DHT22;1796;52.388;13.096;2024-02-15T13:45:28;14.40;99.90
3564;DHT22;1796;52.388;13.096;2024-02-15T13:47:59;14.30;99.90
3564;DHT22;1796;52.388;13.096;2024-02-15T13:50:29;14.10;99.90
3564;DHT22;1796;52.388;13.096;2024-02-15T13:52:56;14.20;99.90
3564;DHT22;1796;52.388;13.096;2024-02-15T13:55:23;14.20;99.90
3564;DHT22;1796;52.388;13.096;2024-02-15T13:57:51;14.10;99.90
3564;DHT22;1796;52.388;13.096;2024-02-15T14:00:21;14.10;99.90
3564;DHT22;1796;52.388;13.096;2024-02-15T14:02:50;14.20;99.90
3564;DHT22;1796;52.388;13.096;2024-02-15T14:05:20;14.30;99.90
3564;DHT22;1796;52.388;13.096;2024-02-15T14:07:50;14.30;99.90
3564;DHT22;1796;52.388;13.096;2024-02-15T14:10:18;14.30;99.90
3564;DHT22;1796;52.388;13.096;2024-02-15T14:12:49;14.30;99.90
3564;DHT22;1796;52.388;13.096;2024-02-15T14:15:22;14.30;99.90
3564;DHT22;1796;52.388;13.096;2024-02-15T14:17:51;14.30;99.90
3564;DHT22;1796;52.388;13.096;2024-02-15T14:20:18;14.30;99.90
3564;DHT22;1796;52.388;13.096;2024-02-15T14:22:47;14.70;99.90
3564;DHT22;1796;52.388;13.096;2024-02-15T14:25:15;14.50;99.90
3564;DHT22;1796;52.388;13.096;2024-02-15T14:27:42;14.40;99.90
3564;DHT22;1796;52.388;13.096;2024-02-15T14:30:10;14.40;99.90
3564;DHT22;1796;52.388;13.096;2024-02-15T14:32:56;14.30;99.90
3564;DHT22;1796;52.388;13.096;2024-02-15T14:35:35;14.30;99.90
3564;DHT22;1796;52.388;13.096;2024-02-15T14:38:05;14.40;99.90
3564;DHT22;1796;52.388;13.096;2024-02-15T14:40:34;14.40;99.90
3564;DHT22;1796;52.388;13.096;2024-02-15T14:43:01;14.40;99.90
3564;DHT22;1796;52.388;13.096;2024-02-15T14:45:28;14.40;99.90
3564;DHT22;1796;52.388;13.096;2024-02-15T14:47:57;14.30;99.90
3564;DHT22;1796;52.388;13.096;2024-02-15T14:50:24;14.20;99.90
3564;DHT22;1796;52.388;13.096;2024-02-15T14:52:51;14.20;99.90
3564;DHT22;1796;52.388;13.096;2024-02-15T14:55:18;14.10;99.90
3564;DHT22;1796;52.388;13.096;2024-02-15T14:57:46;14.10;99.90
3564;DHT22;1796;52.388;13.096;2024-02-15T15:00:14;14.10;99.90
3564;DHT22;1796;52.388;13.096;2024-02-15T15:02:43;14.00;99.90
3564;DHT22;1796;52.388;13.096;2024-02-15T15:05:12;14.00;99.90
3564;DHT22;1796;52.388;13.096;2024-02-15T15:07:56;14.00;99.90
3564;DHT22;1796;52.388;13.096;2024-02-15T15:10:55;14.10;99.90
3564;DHT22;1796;52.388;13.096;2024-02-15T15:13:40;14.10;99.90
3564;DHT22;1796;52.388;13.096;2024-02-15T15:16:07;14.10;99.90
3564;DHT22;1796;52.388;13.096;2024-02-15T15:18:40;14.10;99.90
3564;DHT22;1796;52.388;13.096;2024-02-15T15:21:08;14.10;99.90
3564;DHT22;1796;52.388;13.096;2024-02-15T15:23:35;14.10;99.90
3564;DHT22;1796;52.388;13.096;2024-02-15T15:26:03;14.10;99.90
3564;DHT22;1796;52.388;13.096;2024-02-15T15:28:30;14.10;99.90
3564;DHT22;1796;52.388;13.096;2024-02-15T15:30:57;14.00;99.90
3564;DHT22;1796;52.388;13.096;2024-02-15T15:33:24;13.90;99.90
3564;DHT22;1796;52.388;13.096;2024-02-15T15:35:51;13.80;99.90
3564;DHT22;1796;52.388;13.096;2024-02-15T15:38:21;13.70;99.90
3564;DHT22;1796;52.388;13.096;2024-02-15T15:40:48;13.60;99.90
3564;DHT22;1796;52.388;13.096;2024-02-15T15:43:16;13.60;99.90
3564;DHT22;1796;52.388;13.096;2024-02-15T15:45:43;13.50;99.90
3564;DHT22;1796;52.388;13.096;2024-02-15T15:48:10;13.50;99.90
3564;DHT22;1796;52.388;13.096;2024-02-15T15:50:37;13.50;99.90
3564;DHT22;1796;52.388;13.096;2024-02-15T15:53:06;13.40;99.90
3564;DHT22;1796;52.388;13.096;2024-02-15T15:55:36;13.30;99.90
3564;DHT22;1796;52.388;13.096;2024-02-15T15:58:03;13.30;99.90
3564;DHT22;1796;52.388;13.096;2024-02-15T16:00:32;13.20;99.90
3564;DHT22;1796;52.388;13.096;2024-02-15T16:03:00;13.20;99.90
3564;DHT22;1796;52.388;13.096;2024-02-15T16:05:30;13.20;99.90